createdAt,value
2022-12-08T00:01:33.675Z,33.25
2022-12-08T00:04:02.471Z,31.27
2022-12-08T00:06:58.158Z,33.72
2022-12-08T00:09:39.117Z,29.45
2022-12-08T00:12:10.180Z,29.08
2022-12-08T00:14:45.266Z,26.65
2022-12-08T00:17:15.247Z,25.98
2022-12-08T00:19:43.767Z,25.98
2022-12-08T00:22:13.091Z,26.08
2022-12-08T00:24:41.887Z,26.13
2022-12-08T00:27:11.630Z,25.77
2022-12-08T00:29:39.065Z,24.55
2022-12-08T00:32:07.060Z,25.10
2022-12-08T00:34:35.003Z,26.30
2022-12-08T00:37:02.628Z,27.40
2022-12-08T00:39:30.199Z,26.08
2022-12-08T00:42:12.526Z,27.50
2022-12-08T00:44:44.991Z,26.05
2022-12-08T00:47:14.075Z,26.85
2022-12-08T00:49:41.806Z,26.27
2022-12-08T00:52:09.612Z,24.15
2022-12-08T00:54:37.280Z,24.05
2022-12-08T00:57:04.862Z,21.65
2022-12-08T00:59:32.346Z,22.33
2022-12-08T01:02:00.222Z,23.30
2022-12-08T01:04:27.751Z,21.13
2022-12-08T01:06:55.488Z,21.77
2022-12-08T01:09:23.217Z,21.20
2022-12-08T01:11:50.824Z,21.88
2022-12-08T01:14:18.381Z,22.10
2022-12-08T01:16:46.103Z,22.02
2022-12-08T01:19:16.181Z,20.73
2022-12-08T01:21:45.583Z,20.08
2022-12-08T01:24:15.955Z,20.08
2022-12-08T01:26:43.818Z,20.55
2022-12-08T01:29:11.797Z,20.10
2022-12-08T01:31:40.013Z,19.98
2022-12-08T01:34:08.937Z,20.45
2022-12-08T01:36:39.796Z,20.50
2022-12-08T01:39:14.438Z,20.58
2022-12-08T01:41:43.749Z,20.58
2022-12-08T01:44:11.194Z,20.80
2022-12-08T01:46:43.571Z,20.52
2022-12-08T01:49:25.599Z,20.20
2022-12-08T01:52:00.986Z,19.60
2022-12-08T01:54:33.769Z,20.17
2022-12-08T01:57:13.352Z,20.85
2022-12-08T01:59:48.451Z,20.02
2022-12-08T02:02:16.075Z,20.38
2022-12-08T02:04:43.606Z,21.77
2022-12-08T02:07:13.376Z,20.10
2022-12-08T02:09:42.484Z,18.38
2022-12-08T02:12:11.138Z,20.58
2022-12-08T02:14:38.991Z,20.00
2022-12-08T02:17:17.730Z,18.83
2022-12-08T02:20:21.620Z,20.25
2022-12-08T02:23:09.333Z,20.10
2022-12-08T02:26:11.766Z,19.98
2022-12-08T02:29:06.318Z,20.42
2022-12-08T02:31:55.685Z,19.98
2022-12-08T02:34:41.295Z,22.15
2022-12-08T02:37:14.121Z,21.70
2022-12-08T02:40:16.704Z,22.00
2022-12-08T02:42:58.044Z,20.63
2022-12-08T02:46:03.161Z,21.42
2022-12-08T02:48:32.740Z,19.50
2022-12-08T02:51:00.328Z,20.08
2022-12-08T02:53:31.528Z,21.08
2022-12-08T02:55:58.891Z,19.70
2022-12-08T02:58:29.363Z,18.88
2022-12-08T03:01:10.106Z,19.63
2022-12-08T03:03:55.701Z,19.08
2022-12-08T03:06:40.801Z,18.35
2022-12-08T03:09:17.617Z,20.30
2022-12-08T03:11:51.037Z,19.48
2022-12-08T03:14:19.667Z,19.13
2022-12-08T03:16:51.980Z,19.35
2022-12-08T03:19:23.781Z,19.50
2022-12-08T03:22:02.800Z,18.95
2022-12-08T03:24:34.888Z,19.52
2022-12-08T03:27:14.858Z,18.35
2022-12-08T03:29:42.437Z,19.50
2022-12-08T03:32:32.299Z,19.40
2022-12-08T03:35:04.212Z,18.95
2022-12-08T03:39:58.911Z,18.05
2022-12-08T03:42:26.435Z,18.90
2022-12-08T03:44:53.983Z,20.13
2022-12-08T03:47:21.444Z,21.10
2022-12-08T03:49:48.886Z,21.05
2022-12-08T03:52:16.573Z,20.35
2022-12-08T03:54:44.477Z,19.48
2022-12-08T03:57:12.088Z,19.95
2022-12-08T03:59:39.877Z,20.58
2022-12-08T04:02:07.399Z,22.23
2022-12-08T04:04:35.109Z,20.25
2022-12-08T04:07:02.665Z,21.05
2022-12-08T04:09:30.178Z,20.33
2022-12-08T04:11:57.631Z,21.67
2022-12-08T04:14:25.101Z,21.55
2022-12-08T04:16:52.540Z,20.98
2022-12-08T04:19:20.040Z,22.40
2022-12-08T04:21:47.543Z,20.02
2022-12-08T04:24:14.977Z,20.60
2022-12-08T04:26:42.680Z,20.38
2022-12-08T04:29:10.256Z,20.15
2022-12-08T04:31:38.106Z,21.50
2022-12-08T04:34:05.551Z,20.42
2022-12-08T04:36:33.153Z,20.98
2022-12-08T04:39:00.515Z,20.10
2022-12-08T04:41:27.988Z,22.17
2022-12-08T04:43:55.459Z,21.55
2022-12-08T04:46:23.010Z,20.38
2022-12-08T04:48:50.596Z,20.80
2022-12-08T04:51:19.824Z,19.83
2022-12-08T04:53:47.871Z,20.15
2022-12-08T04:56:18.264Z,21.58
2022-12-08T04:58:46.155Z,20.23
2022-12-08T05:01:14.205Z,21.02
2022-12-08T05:03:41.897Z,19.80
2022-12-08T05:06:12.765Z,20.05
2022-12-08T05:08:41.036Z,20.27
2022-12-08T05:11:10.884Z,19.08
2022-12-08T05:13:38.481Z,20.38
2022-12-08T05:16:09.000Z,19.73
2022-12-08T05:18:37.277Z,20.08
2022-12-08T05:21:05.838Z,21.00
2022-12-08T05:23:33.846Z,20.58
2022-12-08T05:26:02.019Z,19.83
2022-12-08T05:28:44.845Z,19.67
2022-12-08T05:31:13.630Z,19.88
2022-12-08T05:33:41.472Z,20.80
2022-12-08T05:36:10.561Z,25.02
2022-12-08T05:38:38.060Z,21.38
2022-12-08T05:41:09.558Z,20.10
2022-12-08T05:43:37.107Z,21.65
2022-12-08T05:46:05.297Z,21.63
2022-12-08T05:48:33.064Z,19.92
2022-12-08T05:51:01.780Z,19.50
2022-12-08T05:53:29.341Z,19.10
2022-12-08T05:55:56.905Z,20.13
2022-12-08T05:58:24.494Z,19.42
2022-12-08T06:00:52.044Z,18.67
2022-12-08T06:03:20.302Z,19.40
2022-12-08T06:05:48.278Z,19.38
2022-12-08T06:08:15.950Z,19.20
2022-12-08T06:10:44.953Z,18.17
2022-12-08T06:13:12.949Z,18.58
2022-12-08T06:15:41.413Z,19.15
2022-12-08T06:18:10.623Z,18.13
2022-12-08T06:20:38.121Z,19.67
2022-12-08T06:23:05.571Z,19.02
2022-12-08T06:25:33.044Z,19.30
2022-12-08T06:28:00.553Z,18.73
2022-12-08T06:30:28.667Z,19.20
2022-12-08T06:32:56.216Z,19.20
2022-12-08T06:35:23.760Z,18.33
2022-12-08T06:37:51.893Z,19.40
2022-12-08T06:40:20.055Z,20.48
2022-12-08T06:42:47.688Z,18.88
2022-12-08T06:45:16.997Z,19.27
2022-12-08T06:47:44.796Z,19.38
2022-12-08T06:50:13.468Z,19.17
2022-12-08T06:52:50.821Z,19.30
2022-12-08T06:55:51.252Z,19.90
2022-12-08T06:58:12.630Z,20.52
2022-12-08T07:00:41.468Z,19.30
2022-12-08T07:03:10.051Z,19.85
2022-12-08T07:05:38.602Z,20.00
2022-12-08T07:08:08.169Z,21.88
2022-12-08T07:10:36.060Z,21.02
2022-12-08T07:13:03.611Z,21.25
2022-12-08T07:15:31.082Z,20.67
2022-12-08T07:18:00.415Z,21.48
2022-12-08T07:20:28.440Z,21.65
2022-12-08T07:22:55.976Z,21.70
2022-12-08T07:25:24.014Z,20.83
2022-12-08T07:27:52.710Z,21.38
2022-12-08T07:30:20.348Z,21.60
2022-12-08T07:32:47.930Z,22.40
2022-12-08T07:35:15.515Z,19.90
2022-12-08T07:37:43.152Z,20.15
2022-12-08T07:40:11.186Z,20.13
2022-12-08T07:42:38.702Z,19.40
2022-12-08T07:45:06.716Z,18.70
2022-12-08T07:47:34.195Z,19.30
2022-12-08T07:50:01.848Z,18.42
2022-12-08T07:52:29.536Z,19.75
2022-12-08T07:54:59.863Z,17.30
2022-12-08T07:57:27.431Z,18.13
2022-12-08T07:59:54.888Z,17.33
2022-12-08T08:02:24.871Z,17.30
2022-12-08T08:04:53.481Z,12.55
2022-12-08T08:07:21.099Z,16.60
2022-12-08T08:09:48.605Z,16.63
2022-12-08T08:12:31.275Z,16.48
2022-12-08T08:15:00.297Z,17.15
2022-12-08T08:17:28.695Z,16.52
2022-12-08T08:19:56.505Z,17.23
2022-12-08T08:22:25.350Z,18.23
2022-12-08T08:24:53.598Z,18.05
2022-12-08T08:27:21.312Z,17.70
2022-12-08T08:29:49.075Z,17.73
2022-12-08T08:32:16.952Z,17.30
2022-12-08T08:34:44.524Z,18.13
2022-12-08T08:37:12.084Z,18.23
2022-12-08T08:39:39.561Z,18.02
2022-12-08T08:42:06.974Z,19.02
2022-12-08T08:44:34.459Z,19.55
2022-12-08T08:47:02.004Z,19.30
2022-12-08T08:49:29.631Z,19.65
2022-12-08T08:51:57.115Z,19.10
2022-12-08T08:54:24.561Z,18.63
2022-12-08T08:56:52.735Z,17.60
2022-12-08T08:59:20.191Z,18.13
2022-12-08T09:01:47.730Z,18.67
2022-12-08T09:04:15.472Z,16.52
2022-12-08T09:06:45.620Z,16.48
2022-12-08T09:09:13.054Z,15.13
2022-12-08T09:11:40.786Z,14.85
2022-12-08T09:14:08.339Z,15.23
2022-12-08T09:16:41.777Z,13.77
2022-12-08T09:19:09.860Z,17.83
2022-12-08T09:21:37.378Z,17.88
2022-12-08T09:24:05.076Z,19.73
2022-12-08T09:26:32.617Z,22.42
2022-12-08T09:29:00.104Z,22.33
2022-12-08T09:31:27.612Z,24.15
2022-12-08T09:33:55.165Z,24.52
2022-12-08T09:36:22.831Z,24.42
2022-12-08T09:38:51.818Z,23.60
2022-12-08T09:41:41.819Z,21.02
2022-12-08T09:44:44.255Z,21.20
2022-12-08T09:47:39.693Z,22.13
2022-12-08T09:50:16.075Z,21.05
2022-12-08T09:53:09.213Z,20.52
2022-12-08T09:55:55.292Z,20.55
2022-12-08T09:58:37.986Z,19.90
2022-12-08T10:01:05.571Z,20.65
2022-12-08T10:03:33.062Z,21.05
2022-12-08T10:06:32.536Z,21.73
2022-12-08T10:09:12.827Z,22.15
2022-12-08T10:11:56.948Z,22.13
2022-12-08T10:14:51.801Z,22.27
2022-12-08T10:17:35.855Z,22.52
2022-12-08T10:20:17.559Z,22.15
2022-12-08T10:22:47.260Z,20.90
2022-12-08T10:25:19.449Z,17.90
2022-12-08T10:27:51.365Z,19.20
2022-12-08T10:30:22.558Z,18.50
2022-12-08T10:32:52.112Z,12.70
2022-12-08T10:35:22.173Z,17.85
2022-12-08T10:38:01.022Z,18.27
2022-12-08T10:40:39.116Z,18.58
2022-12-08T10:43:34.782Z,18.45
2022-12-08T10:48:50.161Z,17.85
2022-12-08T10:51:40.164Z,17.63
2022-12-08T10:54:32.982Z,18.25
2022-12-08T10:57:00.498Z,17.75
2022-12-08T10:59:28.173Z,18.40
2022-12-08T11:01:57.113Z,17.33
2022-12-08T11:04:36.575Z,18.20
2022-12-08T11:07:11.644Z,18.85
2022-12-08T11:09:48.735Z,18.05
2022-12-08T11:12:17.802Z,17.27
2022-12-08T11:14:45.853Z,18.05
2022-12-08T11:17:17.020Z,19.27
2022-12-08T11:20:19.702Z,20.55
2022-12-08T11:25:22.581Z,19.33
2022-12-08T11:27:53.374Z,20.27
2022-12-08T11:30:25.812Z,20.42
2022-12-08T11:33:01.400Z,20.58
2022-12-08T11:35:33.907Z,20.77
2022-12-08T11:38:40.965Z,21.30
2022-12-08T11:41:21.745Z,20.75
2022-12-08T11:44:11.254Z,21.80
2022-12-08T11:46:48.792Z,20.83
2022-12-08T11:49:18.080Z,20.60
2022-12-08T11:51:48.607Z,21.35
2022-12-08T11:54:27.135Z,22.25
2022-12-08T11:56:57.925Z,21.33
2022-12-08T11:59:41.680Z,22.10
2022-12-08T12:02:16.448Z,23.52
2022-12-08T12:04:55.749Z,22.63
2022-12-08T12:07:38.710Z,21.45
2022-12-08T12:10:12.882Z,21.05
2022-12-08T12:13:03.412Z,20.67
2022-12-08T12:16:09.219Z,22.75
2022-12-08T12:18:46.896Z,21.08
2022-12-08T12:21:50.777Z,21.75
2022-12-08T12:24:26.789Z,21.38
2022-12-08T12:27:06.732Z,22.58
2022-12-08T12:29:37.658Z,22.02
2022-12-08T12:32:08.694Z,22.42
2022-12-08T12:34:38.990Z,21.80
2022-12-08T12:37:37.587Z,20.08
2022-12-08T12:40:16.520Z,19.30
2022-12-08T12:43:09.785Z,18.60
2022-12-08T12:45:43.525Z,17.95
2022-12-08T12:48:22.366Z,18.48
2022-12-08T12:50:51.400Z,19.60
2022-12-08T12:53:19.095Z,18.67
2022-12-08T12:55:46.641Z,19.88
2022-12-08T12:58:29.642Z,18.17
2022-12-08T13:01:15.128Z,18.02
2022-12-08T13:03:44.667Z,18.23
2022-12-08T13:06:15.013Z,17.10
2022-12-08T13:08:53.169Z,19.52
2022-12-08T13:11:21.915Z,19.15
2022-12-08T13:14:03.208Z,18.90
2022-12-08T13:16:37.699Z,19.10
2022-12-08T13:19:13.057Z,17.67
2022-12-08T13:21:40.940Z,19.48
2022-12-08T13:24:14.310Z,18.88
2022-12-08T13:27:04.230Z,18.92
2022-12-08T13:29:37.339Z,18.38
2022-12-08T13:33:16.159Z,19.83
2022-12-08T13:35:30.862Z,18.20
2022-12-08T13:38:00.420Z,17.58
2022-12-08T13:40:30.301Z,17.67
2022-12-08T13:43:06.028Z,18.63
2022-12-08T13:49:36.542Z,18.20
2022-12-08T13:57:30.686Z,19.50
2022-12-08T14:00:05.169Z,19.20
2022-12-08T14:02:48.236Z,20.00
2022-12-08T14:05:20.624Z,21.40
2022-12-08T14:07:56.112Z,21.92
2022-12-08T14:10:30.401Z,22.55
2022-12-08T14:13:12.569Z,23.83
2022-12-08T14:15:40.600Z,25.88
2022-12-08T14:18:24.927Z,25.35
2022-12-08T14:21:21.940Z,25.75
2022-12-08T14:23:49.624Z,26.92
2022-12-08T14:26:18.008Z,28.35
2022-12-08T14:28:45.552Z,29.38
2022-12-08T14:31:14.716Z,26.98
2022-12-08T14:33:43.011Z,29.73
2022-12-08T14:36:20.956Z,30.40
2022-12-08T14:38:56.652Z,30.92
2022-12-08T14:41:32.599Z,30.15
2022-12-08T14:44:01.759Z,30.38
2022-12-08T14:46:29.541Z,30.60
2022-12-08T14:48:58.163Z,31.20
2022-12-08T14:51:32.192Z,29.98
2022-12-08T14:54:06.831Z,30.23
2022-12-08T14:56:54.921Z,30.48
2022-12-08T14:59:32.465Z,30.02
2022-12-08T15:02:31.878Z,29.98
2022-12-08T15:05:11.089Z,29.83
2022-12-08T15:07:51.206Z,32.20
2022-12-08T15:10:27.397Z,30.77
2022-12-08T15:13:11.098Z,32.55
2022-12-08T15:15:58.029Z,32.25
2022-12-08T15:18:40.013Z,32.03
2022-12-08T15:21:09.629Z,33.72
2022-12-08T15:23:44.767Z,32.83
2022-12-08T15:26:26.646Z,33.53
2022-12-08T15:28:54.977Z,33.97
2022-12-08T15:31:22.643Z,34.88
2022-12-08T15:33:50.178Z,33.80
2022-12-08T15:36:17.726Z,35.33
2022-12-08T15:38:45.207Z,34.38
2022-12-08T15:41:15.241Z,35.97
2022-12-08T15:43:42.998Z,34.88
2022-12-08T15:46:10.670Z,33.05
2022-12-08T15:48:38.257Z,33.08
2022-12-08T15:51:05.756Z,34.90
2022-12-08T15:53:33.155Z,35.78
2022-12-08T15:58:55.694Z,36.58
2022-12-08T16:01:24.416Z,35.63
2022-12-08T16:09:34.555Z,31.60
2022-12-08T16:12:20.773Z,33.20
2022-12-08T16:17:37.347Z,32.67
2022-12-08T16:20:11.178Z,33.03
2022-12-08T16:23:03.550Z,32.42
2022-12-08T16:25:28.780Z,34.85
2022-12-08T16:28:12.550Z,37.05
2022-12-08T16:30:48.528Z,35.97
2022-12-08T16:33:15.964Z,37.92
2022-12-08T16:35:43.558Z,40.17
2022-12-08T16:38:15.519Z,44.33
2022-12-08T16:41:07.937Z,37.75
2022-12-08T16:46:04.553Z,36.63
2022-12-08T16:48:32.132Z,38.83
2022-12-08T16:50:59.618Z,39.90
2022-12-08T16:53:27.143Z,38.83
2022-12-08T16:55:54.606Z,33.22
2022-12-08T16:58:21.992Z,36.45
2022-12-08T17:00:49.522Z,33.80
2022-12-08T17:03:17.661Z,33.03
2022-12-08T17:05:45.190Z,32.38
2022-12-08T17:08:14.041Z,33.63
2022-12-08T17:10:41.906Z,31.55
2022-12-08T17:13:10.762Z,33.40
2022-12-08T17:15:40.255Z,34.97
2022-12-08T17:18:07.827Z,34.15
2022-12-08T17:20:36.311Z,35.33
2022-12-08T17:23:03.822Z,37.00
2022-12-08T17:25:31.721Z,36.75
2022-12-08T17:27:59.130Z,37.13
2022-12-08T17:30:26.622Z,38.88
2022-12-08T17:32:54.465Z,40.28
2022-12-08T17:35:21.957Z,45.88
2022-12-08T17:37:49.450Z,46.03
2022-12-08T17:40:16.963Z,45.30
2022-12-08T17:42:44.755Z,52.90
2022-12-08T17:45:12.334Z,48.28
2022-12-08T17:47:39.962Z,47.45
2022-12-08T17:50:08.507Z,47.20
2022-12-08T17:52:36.186Z,47.30
2022-12-08T17:55:04.288Z,43.83
2022-12-08T17:57:31.858Z,43.05
2022-12-08T17:59:59.385Z,41.28
2022-12-08T18:02:26.939Z,43.25
2022-12-08T18:04:54.520Z,44.10
2022-12-08T18:07:22.022Z,41.90
2022-12-08T18:09:51.509Z,44.38
2022-12-08T18:12:23.396Z,45.28
2022-12-08T18:14:52.355Z,45.20
2022-12-08T18:17:20.620Z,46.63
2022-12-08T18:19:48.142Z,44.90
2022-12-08T18:22:16.126Z,44.30
2022-12-08T18:24:44.139Z,46.08
2022-12-08T18:27:11.702Z,45.78
2022-12-08T18:29:40.051Z,45.63
2022-12-08T18:32:08.553Z,44.30
2022-12-08T18:34:36.161Z,47.08
2022-12-08T18:37:03.953Z,46.10
2022-12-08T18:39:32.864Z,43.13
2022-12-08T18:42:22.071Z,44.22
2022-12-08T18:45:07.307Z,43.05
2022-12-08T18:47:37.070Z,43.88
2022-12-08T18:50:08.340Z,45.15
2022-12-08T18:52:36.075Z,43.80
2022-12-08T18:55:07.524Z,48.83
2022-12-08T18:57:38.849Z,44.72
2022-12-08T19:00:08.797Z,45.33
2022-12-08T19:02:38.382Z,42.95
2022-12-08T19:05:07.960Z,44.17
2022-12-08T19:07:35.958Z,41.05
2022-12-08T19:10:04.993Z,39.67
2022-12-08T19:12:32.741Z,39.00
2022-12-08T19:15:00.271Z,36.63
2022-12-08T19:17:29.647Z,36.38
2022-12-08T19:19:57.750Z,34.92
2022-12-08T19:22:25.222Z,37.90
2022-12-08T19:24:52.727Z,40.00
2022-12-08T19:27:20.308Z,42.28
2022-12-08T19:29:47.985Z,40.22
2022-12-08T19:32:15.497Z,40.53
2022-12-08T19:34:43.083Z,41.13
2022-12-08T19:37:12.581Z,40.35
2022-12-08T19:39:58.936Z,38.38
2022-12-08T19:42:44.838Z,41.10
2022-12-08T19:45:19.860Z,40.28
2022-12-08T19:47:47.846Z,40.53
2022-12-08T19:50:35.031Z,41.08
2022-12-08T19:53:10.812Z,38.47
2022-12-08T19:55:38.798Z,38.17
2022-12-08T19:58:07.270Z,39.17
2022-12-08T20:00:36.314Z,38.88
2022-12-08T20:03:04.880Z,37.83
2022-12-08T20:05:34.330Z,38.20
2022-12-08T20:08:01.906Z,38.30
2022-12-08T20:10:33.763Z,36.70
2022-12-08T20:13:20.359Z,34.78
2022-12-08T20:15:48.255Z,34.17
2022-12-08T20:18:16.470Z,33.88
2022-12-08T20:20:45.613Z,33.28
2022-12-08T20:23:14.695Z,35.35
2022-12-08T20:25:44.139Z,34.42
2022-12-08T20:28:12.148Z,34.92
2022-12-08T20:30:42.830Z,34.60
2022-12-08T20:33:13.005Z,36.78
2022-12-08T20:35:40.668Z,37.03
2022-12-08T20:38:08.352Z,36.95
2022-12-08T20:40:35.932Z,37.10
2022-12-08T20:43:03.465Z,37.50
2022-12-08T20:45:30.920Z,37.67
2022-12-08T20:47:58.500Z,38.53
2022-12-08T20:50:26.058Z,39.63
2022-12-08T20:52:54.266Z,39.50
2022-12-08T20:55:21.813Z,40.00
2022-12-08T20:57:49.230Z,42.85
2022-12-08T21:00:17.699Z,40.97
2022-12-08T21:02:49.741Z,41.53
2022-12-08T21:05:21.760Z,41.65
2022-12-08T21:07:49.436Z,40.70
2022-12-08T21:10:17.363Z,41.65
2022-12-08T21:12:44.914Z,40.83
2022-12-08T21:15:12.812Z,42.75
2022-12-08T21:17:40.601Z,39.53
2022-12-08T21:20:08.668Z,39.40
2022-12-08T21:22:36.405Z,40.17
2022-12-08T21:25:04.143Z,39.33
2022-12-08T21:27:31.678Z,38.22
2022-12-08T21:29:59.421Z,41.13
2022-12-08T21:32:30.328Z,39.38
2022-12-08T21:34:58.639Z,40.67
2022-12-08T21:37:26.223Z,40.00
2022-12-08T21:39:53.843Z,41.20
2022-12-08T21:42:39.760Z,39.88
2022-12-08T21:45:08.076Z,39.30
2022-12-08T21:47:35.786Z,40.50
2022-12-08T21:50:04.648Z,38.22
2022-12-08T21:52:32.550Z,40.88
2022-12-08T21:55:00.263Z,40.00
2022-12-08T21:57:27.883Z,38.08
2022-12-08T21:59:55.333Z,38.08
2022-12-08T22:02:23.408Z,39.30
2022-12-08T22:04:52.800Z,39.35
2022-12-08T22:07:21.320Z,38.30
2022-12-08T22:09:49.330Z,39.92
2022-12-08T22:12:17.333Z,40.05
2022-12-08T22:14:45.720Z,41.85
2022-12-08T22:17:13.417Z,42.65
2022-12-08T22:19:41.074Z,39.97
2022-12-08T22:22:08.469Z,39.45
2022-12-08T22:24:36.335Z,39.65
2022-12-08T22:27:04.009Z,40.10
2022-12-08T22:29:31.538Z,40.65
2022-12-08T22:31:59.149Z,39.20
2022-12-08T22:34:26.762Z,40.20
2022-12-08T22:36:54.306Z,40.35
2022-12-08T22:39:21.861Z,42.40
2022-12-08T22:41:49.277Z,41.10
2022-12-08T22:44:16.950Z,41.58
2022-12-08T22:46:44.769Z,41.30
2022-12-08T22:49:12.231Z,40.83
2022-12-08T22:51:39.662Z,40.53
2022-12-08T22:54:09.534Z,41.85
2022-12-08T22:56:37.163Z,39.33
2022-12-08T22:59:05.411Z,37.72
2022-12-08T23:01:33.671Z,37.63
2022-12-08T23:04:01.618Z,37.78
2022-12-08T23:06:30.519Z,38.75
2022-12-08T23:08:59.379Z,38.85
2022-12-08T23:11:30.727Z,38.67
2022-12-08T23:14:02.596Z,40.47
2022-12-08T23:16:30.423Z,39.35
2022-12-08T23:18:59.175Z,39.63
2022-12-08T23:21:27.117Z,42.00
2022-12-08T23:23:54.741Z,44.35
2022-12-08T23:26:25.078Z,41.92
2022-12-08T23:28:52.812Z,42.47
2022-12-08T23:31:21.077Z,41.33
2022-12-08T23:33:49.266Z,42.67
2022-12-08T23:36:18.825Z,41.20
2022-12-08T23:38:46.637Z,42.80
2022-12-08T23:41:15.686Z,42.60
2022-12-08T23:43:47.907Z,43.70
2022-12-08T23:46:17.795Z,45.53
2022-12-08T23:48:45.585Z,44.25
2022-12-08T23:51:14.041Z,44.83
2022-12-08T23:53:41.783Z,43.70
2022-12-08T23:56:13.036Z,42.83
2022-12-08T23:58:42.170Z,43.53
